Riverton, Wyoming
Current Conditions -  °F | °C
As of 1:53 AM on Monday 22 Dec 2014 (Local Time) from KRIW Reporting Station
Clear Clear  
Wind Chill: 20°   Ceiling: Unl
Heat Index: 32°   Visibility: 10mi
Dew Point: 19°   Wind: 21mph
Humidity: 59%   Direction: 310°NW
Pressure: 29.76"   Gusts: 29mph
Location:  43.02°N, 108.38°W
Report Text: KRIW 220853Z AUTO 31018G25KT 10SM CLR 00/M07 A2976 RMK AO2 PK WND 29028/0811 SLP084 T00001072 51010
Loading
Personal Weather Stations






























Interactive Weather Map New forecast layout! Learn more

10-Day Weather Forecast

Advertisements
Track Severe Weather on mobile